Geervliet — PCLI — position and weather

sailwx.info

Track history (hours):
 
Tides and Currents Weather Stations Pressure Air Temp Water Temp Dewpoint Dewpoint Depression Visibility Wind Speed Wind Dir Waves Ship Positions

Geervliet

Last reported at 2014-Sep-29 23:17 UTC. Time now 2014-Oct-02 02:30 UTC.
Position N 57°52' E 018°16'.

Length 86 m; draft 3.2 m.

Type: Cargo ship. MMSI: 246803000.

Date/timePositionNaut miles runAvg speedWind from/ knotsBaromVisibWave heightAir tempDewpointWater temp
2014-Sep-29 23:17N 57°52' E 018°16'1311.0
2014-Sep-29 22:09N 57°42' E 018°04'910.8
2014-Sep-29 21:21N 57°34' E 017°56'910.9
2014-Sep-29 20:31N 57°27' E 017°46'1111.0
2014-Sep-29 19:33N 57°17' E 017°39'1110.7
2014-Sep-29 18:33N 57°07' E 017°32'1111.1
2014-Sep-29 17:33N 56°57' E 017°25'5611.1
2014-Sep-29 12:33N 56°04' E 016°49'1211.4
2014-Sep-29 11:28N 55°58' E 016°30'2211.3
2014-Sep-29 09:33N 55°48' E 015°56'1211.5
2014-Sep-29 08:30N 55°42' E 015°37'1111.5
2014-Sep-29 07:33N 55°37' E 015°20'1211.8
2014-Sep-29 06:34N 55°31' E 015°03'1211.9
2014-Sep-29 05:34N 55°24' E 014°45'1211.6
2014-Sep-29 04:33N 55°16' E 014°30'1211.6
2014-Sep-29 03:33N 55°07' E 014°17'1111.4
2014-Sep-29 02:33N 55°00' E 014°01'1211.9
2014-Sep-29 01:34N 54°56' E 013°42'1111.4
2014-Sep-29 00:34N 54°53' E 013°23'1111.1
2014-Sep-28 23:34N 54°49' E 013°05'1111.0
2014-Sep-28 22:33N 54°45' E 012°47'1211.9
2014-Sep-28 21:33N 54°39' E 012°29'1211.5
2014-Sep-28 20:33N 54°30' E 012°16'1010.4
2014-Sep-28 19:33N 54°24' E 012°01'1212.2
2014-Sep-28 18:33N 54°26' E 011°40'1312.7
2014-Sep-28 17:33N 54°32' E 011°21'1312.5
2014-Sep-28 16:33N 54°34' E 010°60'1211.6
2014-Sep-28 15:33N 54°33' E 010°40'1111.5
2014-Sep-28 14:33N 54°30' E 010°21'1010.5
2014-Sep-28 13:33N 54°22' E 010°09'3 2.8
2014-Sep-28 12:33N 54°22' E 010°04'8 7.7
2014-Sep-28 11:33N 54°22' E 009°51'8 7.9
2014-Sep-28 10:33N 54°17' E 009°40'7 7.2
2014-Sep-28 09:33N 54°12' E 009°33'10 7.6
2014-Sep-28 08:11N 54°05' E 009°19'3 4.1
2014-Sep-28 07:33N 54°02' E 009°18'6 6.2
2014-Sep-28 06:33N 53°57' E 009°14'0 0.1
2014-Sep-28 05:33N 53°57' E 009°14'4 4.1
2014-Sep-28 04:33N 53°54' E 009°09'7 6.7
2014-Sep-28 03:33N 53°51' E 008°58'10 9.8
2014-Sep-28 02:33N 53°53' E 008°42'1110.5
2014-Sep-28 01:33N 53°59' E 008°27'1111.3
2014-Sep-28 00:33N 53°59' E 008°08'1110.9
2014-Sep-27 23:33N 54°04' E 007°51'1111.4
2014-Sep-27 22:33N 54°09' E 007°34'1212.0
2014-Sep-27 21:33N 54°09' E 007°13'3611.9
2014-Sep-27 18:29N 54°07' E 006°11'1010.6
2014-Sep-27 17:33N 54°06' E 005°54'1010.0
2014-Sep-27 16:33N 54°05' E 005°37'10 9.9
2014-Sep-27 15:33N 54°04' E 005°21'1010.0
2014-Sep-27 14:33N 54°02' E 005°04'1010.3
2014-Sep-27 13:33N 54°01' E 004°46'1310.6
2014-Sep-27 12:19N 53°59' E 004°25'10111.5
2014-Sep-27 03:32N 53°42' E 001°36'1111.1
2014-Sep-27 02:31N 53°40' E 001°18'2311.3
2014-Sep-27 00:27N 53°35' E 000°39'1011.5
2014-Sep-26 23:33N 53°33' E 000°23'1212.1
2014-Sep-26 22:33N 53°35' E 000°03'1313.4
2014-Sep-26 21:33N 53°43' W 000°15'1111.5
2014-Sep-26 20:34N 53°43' W 000°34'8 5.3
2014-Sep-26 19:06N 53°36' W 000°42'1 0.0
2014-Sep-25 04:23N 53°36' W 000°44'0 0.0
2014-Sep-25 03:09N 53°36' W 000°44'0 0.0
2014-Sep-25 02:31N 53°36' W 000°44'0 0.0
2014-Sep-25 01:28N 53°36' W 000°44'0 0.0
2014-Sep-25 00:26N 53°36' W 000°44'0 0.0
2014-Sep-24 22:30N 53°36' W 000°44'0 0.0
2014-Sep-24 19:22N 53°36' W 000°44'0 0.0
2014-Sep-24 17:04N 53°36' W 000°44'8 0.7
2014-Sep-24 05:33N 53°43' W 000°39'7 6.7
2014-Sep-24 04:33N 53°42' W 000°28'9 9.1
2014-Sep-24 03:33N 53°41' W 000°13'1010.0
2014-Sep-24 02:33N 53°35' E 000°01'10 9.4
2014-Sep-24 01:33N 53°33' E 000°17'11 9.9
2014-Sep-24 00:28N 53°34' E 000°34'15110.8
2014-Sep-23 10:33N 54°03' E 004°45'1110.9
2014-Sep-23 09:30N 54°05' E 005°04'1010.5
2014-Sep-23 08:33N 54°07' E 005°21'1010.2
2014-Sep-23 07:32N 54°08' E 005°39'1010.1
2014-Sep-23 06:32N 54°09' E 005°56'4310.9
2014-Sep-23 02:33N 54°11' E 007°10'1111.4
2014-Sep-23 01:33N 54°10' E 007°29'1111.4
2014-Sep-23 00:33N 54°00' E 007°39'1110.5
2014-Sep-22 23:31N 53°53' E 007°51'1010.5
2014-Sep-22 22:33N 53°49' E 008°07'10 9.9
2014-Sep-22 21:33N 53°42' E 008°20'9 9.0
2014-Sep-22 20:33N 53°36' E 008°31'8 7.6
2014-Sep-22 19:33N 53°28' E 008°30'7 7.1
2014-Sep-22 18:33N 53°21' E 008°30'0 0.0
2014-Sep-22 17:33N 53°21' E 008°30'0 0.0
2014-Sep-22 16:33N 53°21' E 008°30'0 0.0
2014-Sep-22 15:33N 53°21' E 008°30'0 0.0
2014-Sep-22 14:33N 53°21' E 008°30'0 0.0
2014-Sep-22 13:33N 53°21' E 008°30'0 0.0
2014-Sep-22 12:33N 53°21' E 008°30'0 0.0
2014-Sep-22 11:33N 53°21' E 008°30'0 0.0
2014-Sep-22 10:33N 53°21' E 008°30'0 0.0
2014-Sep-22 09:33N 53°21' E 008°30'0 0.0
2014-Sep-22 08:33N 53°21' E 008°30'0 0.0
2014-Sep-22 07:33N 53°21' E 008°30'0 0.0
2014-Sep-22 06:33N 53°21' E 008°30'0 0.0
2014-Sep-22 05:33N 53°21' E 008°30'2 1.6
2014-Sep-22 04:33N 53°23' E 008°30'8 7.7
2014-Sep-22 03:33N 53°31' E 008°32'6 6.3
2014-Sep-22 02:33N 53°37' E 008°29'8 7.7
2014-Sep-22 01:33N 53°42' E 008°20'8 7.8
2014-Sep-22 00:33N 53°47' E 008°10'9 7.7
2014-Sep-21 23:20N 53°51' E 007°56'58 9.8
2014-Sep-21 17:27N 53°44' E 006°19'910.2
2014-Sep-21 16:33N 53°41' E 006°04'1010.1
2014-Sep-21 15:33N 53°38' E 005°48'10 9.7
2014-Sep-21 14:33N 53°35' E 005°33'9 9.5
2014-Sep-21 13:33N 53°32' E 005°18'9 8.9
2014-Sep-21 12:33N 53°29' E 005°03'9 8.5
2014-Sep-21 11:29N 53°25' E 004°50'22 7.6
2014-Sep-21 08:31N 53°06' E 004°28'7 7.3
2014-Sep-21 07:33N 53°00' E 004°22'7 7.3
2014-Sep-21 06:33N 52°54' E 004°17'8 7.7
2014-Sep-21 05:33N 52°47' E 004°10'8 8.4
2014-Sep-21 04:33N 52°41' E 004°00'9 8.7
2014-Sep-21 03:33N 52°35' E 003°50'7510.7
2014-Sep-20 20:33N 51°39' E 002°29'11 9.9
2014-Sep-20 19:26N 51°30' E 002°18'9 9.4
2014-Sep-20 18:31N 51°23' E 002°11'9 9.2
2014-Sep-20 17:33N 51°15' E 002°05'9 8.8
2014-Sep-20 16:34N 51°10' E 001°54'9 8.7
2014-Sep-20 15:33N 51°04' E 001°43'9 9.1
2014-Sep-20 14:33N 50°57' E 001°33'1210.1
2014-Sep-20 13:20N 50°47' E 001°23'1910.1
2014-Sep-20 11:25N 50°33' E 001°01'910.4
2014-Sep-20 10:33N 50°29' E 000°49'1010.4
2014-Sep-20 09:33N 50°26' E 000°33'1110.6
2014-Sep-20 08:31N 50°22' E 000°17'1111.3
2014-Sep-20 07:32N 50°20' W 000°00'1212.0
2014-Sep-20 06:33N 50°15' W 000°17'1312.4
2014-Sep-20 05:30N 50°11' W 000°37'1412.4
2014-Sep-20 04:21N 50°08' W 000°58'  
Track history (hours):
 
Tides and Currents Weather Stations Pressure Air Temp Water Temp Dewpoint Dewpoint Depression Visibility Wind Speed Wind Dir Waves Ship Positions

Geervliet

Last reported at 2014-Sep-29 23:17 UTC. Time now 2014-Oct-02 02:30 UTC.
Position N 57°52' E 018°16'.

Length 86 m; draft 3.2 m.

Type: Cargo ship. MMSI: 246803000.

Date/timePositionNaut miles runAvg speedWind from/ knotsBaromVisibWave heightAir tempDewpointWater temp
2014-Sep-29 23:17N 57°52' E 018°16'1311.0
2014-Sep-29 22:09N 57°42' E 018°04'910.8
2014-Sep-29 21:21N 57°34' E 017°56'910.9
2014-Sep-29 20:31N 57°27' E 017°46'1111.0
2014-Sep-29 19:33N 57°17' E 017°39'1110.7
2014-Sep-29 18:33N 57°07' E 017°32'1111.1
2014-Sep-29 17:33N 56°57' E 017°25'5611.1
2014-Sep-29 12:33N 56°04' E 016°49'1211.4
2014-Sep-29 11:28N 55°58' E 016°30'2211.3
2014-Sep-29 09:33N 55°48' E 015°56'1211.5
2014-Sep-29 08:30N 55°42' E 015°37'1111.5
2014-Sep-29 07:33N 55°37' E 015°20'1211.8
2014-Sep-29 06:34N 55°31' E 015°03'1211.9
2014-Sep-29 05:34N 55°24' E 014°45'1211.6
2014-Sep-29 04:33N 55°16' E 014°30'1211.6
2014-Sep-29 03:33N 55°07' E 014°17'1111.4
2014-Sep-29 02:33N 55°00' E 014°01'1211.9
2014-Sep-29 01:34N 54°56' E 013°42'1111.4
2014-Sep-29 00:34N 54°53' E 013°23'1111.1
2014-Sep-28 23:34N 54°49' E 013°05'1111.0
2014-Sep-28 22:33N 54°45' E 012°47'1211.9
2014-Sep-28 21:33N 54°39' E 012°29'1211.5
2014-Sep-28 20:33N 54°30' E 012°16'1010.4
2014-Sep-28 19:33N 54°24' E 012°01'1212.2
2014-Sep-28 18:33N 54°26' E 011°40'1312.7
2014-Sep-28 17:33N 54°32' E 011°21'1312.5
2014-Sep-28 16:33N 54°34' E 010°60'1211.6
2014-Sep-28 15:33N 54°33' E 010°40'1111.5
2014-Sep-28 14:33N 54°30' E 010°21'1010.5
2014-Sep-28 13:33N 54°22' E 010°09'3 2.8
2014-Sep-28 12:33N 54°22' E 010°04'8 7.7
2014-Sep-28 11:33N 54°22' E 009°51'8 7.9
2014-Sep-28 10:33N 54°17' E 009°40'7 7.2
2014-Sep-28 09:33N 54°12' E 009°33'10 7.6
2014-Sep-28 08:11N 54°05' E 009°19'3 4.1
2014-Sep-28 07:33N 54°02' E 009°18'6 6.2
2014-Sep-28 06:33N 53°57' E 009°14'0 0.1
2014-Sep-28 05:33N 53°57' E 009°14'4 4.1
2014-Sep-28 04:33N 53°54' E 009°09'7 6.7
2014-Sep-28 03:33N 53°51' E 008°58'10 9.8
2014-Sep-28 02:33N 53°53' E 008°42'1110.5
2014-Sep-28 01:33N 53°59' E 008°27'1111.3
2014-Sep-28 00:33N 53°59' E 008°08'1110.9
2014-Sep-27 23:33N 54°04' E 007°51'1111.4
2014-Sep-27 22:33N 54°09' E 007°34'1212.0
2014-Sep-27 21:33N 54°09' E 007°13'3611.9
2014-Sep-27 18:29N 54°07' E 006°11'1010.6
2014-Sep-27 17:33N 54°06' E 005°54'1010.0
2014-Sep-27 16:33N 54°05' E 005°37'10 9.9
2014-Sep-27 15:33N 54°04' E 005°21'1010.0
2014-Sep-27 14:33N 54°02' E 005°04'1010.3
2014-Sep-27 13:33N 54°01' E 004°46'1310.6
2014-Sep-27 12:19N 53°59' E 004°25'10111.5
2014-Sep-27 03:32N 53°42' E 001°36'1111.1
2014-Sep-27 02:31N 53°40' E 001°18'2311.3
2014-Sep-27 00:27N 53°35' E 000°39'1011.5
2014-Sep-26 23:33N 53°33' E 000°23'1212.1
2014-Sep-26 22:33N 53°35' E 000°03'1313.4
2014-Sep-26 21:33N 53°43' W 000°15'1111.5
2014-Sep-26 20:34N 53°43' W 000°34'8 5.3
2014-Sep-26 19:06N 53°36' W 000°42'1 0.0
2014-Sep-25 04:23N 53°36' W 000°44'0 0.0
2014-Sep-25 03:09N 53°36' W 000°44'0 0.0
2014-Sep-25 02:31N 53°36' W 000°44'0 0.0
2014-Sep-25 01:28N 53°36' W 000°44'0 0.0
2014-Sep-25 00:26N 53°36' W 000°44'0 0.0
2014-Sep-24 22:30N 53°36' W 000°44'0 0.0
2014-Sep-24 19:22N 53°36' W 000°44'0 0.0
2014-Sep-24 17:04N 53°36' W 000°44'8 0.7
2014-Sep-24 05:33N 53°43' W 000°39'7 6.7
2014-Sep-24 04:33N 53°42' W 000°28'9 9.1
2014-Sep-24 03:33N 53°41' W 000°13'1010.0
2014-Sep-24 02:33N 53°35' E 000°01'10 9.4
2014-Sep-24 01:33N 53°33' E 000°17'11 9.9
2014-Sep-24 00:28N 53°34' E 000°34'15110.8
2014-Sep-23 10:33N 54°03' E 004°45'1110.9
2014-Sep-23 09:30N 54°05' E 005°04'1010.5
2014-Sep-23 08:33N 54°07' E 005°21'1010.2
2014-Sep-23 07:32N 54°08' E 005°39'1010.1
2014-Sep-23 06:32N 54°09' E 005°56'4310.9
2014-Sep-23 02:33N 54°11' E 007°10'1111.4
2014-Sep-23 01:33N 54°10' E 007°29'1111.4
2014-Sep-23 00:33N 54°00' E 007°39'1110.5
2014-Sep-22 23:31N 53°53' E 007°51'1010.5
2014-Sep-22 22:33N 53°49' E 008°07'10 9.9
2014-Sep-22 21:33N 53°42' E 008°20'9 9.0
2014-Sep-22 20:33N 53°36' E 008°31'8 7.6
2014-Sep-22 19:33N 53°28' E 008°30'7 7.1
2014-Sep-22 18:33N 53°21' E 008°30'0 0.0
2014-Sep-22 17:33N 53°21' E 008°30'0 0.0
2014-Sep-22 16:33N 53°21' E 008°30'0 0.0
2014-Sep-22 15:33N 53°21' E 008°30'0 0.0
2014-Sep-22 14:33N 53°21' E 008°30'0 0.0
2014-Sep-22 13:33N 53°21' E 008°30'0 0.0
2014-Sep-22 12:33N 53°21' E 008°30'0 0.0
2014-Sep-22 11:33N 53°21' E 008°30'0 0.0
2014-Sep-22 10:33N 53°21' E 008°30'0 0.0
2014-Sep-22 09:33N 53°21' E 008°30'0 0.0
2014-Sep-22 08:33N 53°21' E 008°30'0 0.0
2014-Sep-22 07:33N 53°21' E 008°30'0 0.0
2014-Sep-22 06:33N 53°21' E 008°30'0 0.0
2014-Sep-22 05:33N 53°21' E 008°30'2 1.6
2014-Sep-22 04:33N 53°23' E 008°30'8 7.7
2014-Sep-22 03:33N 53°31' E 008°32'6 6.3
2014-Sep-22 02:33N 53°37' E 008°29'8 7.7
2014-Sep-22 01:33N 53°42' E 008°20'8 7.8
2014-Sep-22 00:33N 53°47' E 008°10'9 7.7
2014-Sep-21 23:20N 53°51' E 007°56'58 9.8
2014-Sep-21 17:27N 53°44' E 006°19'910.2
2014-Sep-21 16:33N 53°41' E 006°04'1010.1
2014-Sep-21 15:33N 53°38' E 005°48'10 9.7
2014-Sep-21 14:33N 53°35' E 005°33'9 9.5
2014-Sep-21 13:33N 53°32' E 005°18'9 8.9
2014-Sep-21 12:33N 53°29' E 005°03'9 8.5
2014-Sep-21 11:29N 53°25' E 004°50'22 7.6
2014-Sep-21 08:31N 53°06' E 004°28'7 7.3
2014-Sep-21 07:33N 53°00' E 004°22'7 7.3
2014-Sep-21 06:33N 52°54' E 004°17'8 7.7
2014-Sep-21 05:33N 52°47' E 004°10'8 8.4
2014-Sep-21 04:33N 52°41' E 004°00'9 8.7
2014-Sep-21 03:33N 52°35' E 003°50'7510.7
2014-Sep-20 20:33N 51°39' E 002°29'11 9.9
2014-Sep-20 19:26N 51°30' E 002°18'9 9.4
2014-Sep-20 18:31N 51°23' E 002°11'9 9.2
2014-Sep-20 17:33N 51°15' E 002°05'9 8.8
2014-Sep-20 16:34N 51°10' E 001°54'9 8.7
2014-Sep-20 15:33N 51°04' E 001°43'9 9.1
2014-Sep-20 14:33N 50°57' E 001°33'1210.1
2014-Sep-20 13:20N 50°47' E 001°23'1910.1
2014-Sep-20 11:25N 50°33' E 001°01'910.4
2014-Sep-20 10:33N 50°29' E 000°49'1010.4
2014-Sep-20 09:33N 50°26' E 000°33'1110.6
2014-Sep-20 08:31N 50°22' E 000°17'1111.3
2014-Sep-20 07:32N 50°20' W 000°00'1212.0
2014-Sep-20 06:33N 50°15' W 000°17'1312.4
2014-Sep-20 05:30N 50°11' W 000°37'1412.4
2014-Sep-20 04:21N 50°08' W 000°58'  

Dump ship's entire track history